createdAt,value
2018-03-18T00:05:01.534Z,53.20
2018-03-18T00:10:34.948Z,54.60
2018-03-18T00:13:03.194Z,51.10
2018-03-18T00:15:30.641Z,48.63
2018-03-18T00:17:59.807Z,50.07
2018-03-18T00:20:28.921Z,47.30
2018-03-18T00:22:59.344Z,48.63
2018-03-18T00:25:29.653Z,44.43
2018-03-18T00:28:10.559Z,47.50
2018-03-18T00:30:38.034Z,48.10
2018-03-18T00:33:05.533Z,51.47
2018-03-18T00:35:33.027Z,44.77
2018-03-18T00:38:00.484Z,48.67
2018-03-18T00:40:27.995Z,51.70
2018-03-18T00:42:58.933Z,46.60
2018-03-18T00:45:29.993Z,49.70
2018-03-18T00:47:57.552Z,46.43
2018-03-18T00:50:29.043Z,54.70
2018-03-18T00:52:57.986Z,46.37
2018-03-18T00:55:27.014Z,46.70
2018-03-18T00:57:58.042Z,42.40
2018-03-18T01:00:30.906Z,46.50
2018-03-18T01:02:58.366Z,40.83
2018-03-18T01:05:29.707Z,39.00
2018-03-18T01:08:05.907Z,46.90
2018-03-18T01:10:34.714Z,43.97
2018-03-18T01:13:02.938Z,39.40
2018-03-18T01:15:31.199Z,39.63
2018-03-18T01:18:00.886Z,42.10
2018-03-18T01:20:28.374Z,41.60
2018-03-18T01:22:59.042Z,45.77
2018-03-18T01:25:26.526Z,45.93
2018-03-18T01:27:58.417Z,44.90
2018-03-18T01:30:29.111Z,43.40
2018-03-18T01:33:00.861Z,44.17
2018-03-18T01:35:31.335Z,44.83
2018-03-18T01:38:00.026Z,39.17
2018-03-18T01:40:30.913Z,42.70
2018-03-18T01:43:00.985Z,40.10
2018-03-18T01:45:31.074Z,42.73
2018-03-18T01:48:01.898Z,42.47
2018-03-18T01:50:31.253Z,39.17
2018-03-18T01:56:30.070Z,42.13
2018-03-18T01:59:00.473Z,44.23
2018-03-18T02:01:31.125Z,40.43
2018-03-18T02:04:01.196Z,42.97
2018-03-18T02:06:32.337Z,44.43
2018-03-18T02:12:01.132Z,36.70
2018-03-18T02:14:32.478Z,39.20
2018-03-18T02:20:02.187Z,41.60
2018-03-18T02:22:36.200Z,44.03
2018-03-18T02:25:04.861Z,41.47
2018-03-18T02:27:32.376Z,51.80
2018-03-18T02:30:02.864Z,39.67
2018-03-18T02:32:32.723Z,43.73
2018-03-18T02:35:02.580Z,46.67
2018-03-18T02:37:32.722Z,41.63
2018-03-18T02:43:32.633Z,41.40
2018-03-18T02:46:02.938Z,44.87
2018-03-18T02:48:32.096Z,47.00
2018-03-18T02:51:01.803Z,45.40
2018-03-18T02:53:30.480Z,42.50
2018-03-18T02:56:01.786Z,42.13
2018-03-18T02:58:31.846Z,48.03
2018-03-18T03:01:01.487Z,39.20
2018-03-18T03:12:36.569Z,43.43
2018-03-18T03:15:04.026Z,46.80
2018-03-18T03:17:31.508Z,42.73
2018-03-18T03:20:02.203Z,52.77
2018-03-18T03:22:31.217Z,49.67
2018-03-18T03:25:01.118Z,53.60
2018-03-18T03:27:32.246Z,47.73
2018-03-18T03:30:02.255Z,48.77
2018-03-18T03:32:32.366Z,48.97
2018-03-18T03:35:01.488Z,48.10
2018-03-18T03:37:31.457Z,49.33
2018-03-18T03:40:01.481Z,52.90
2018-03-18T03:42:31.381Z,50.90
2018-03-18T03:45:01.517Z,54.33
2018-03-18T03:47:31.450Z,54.97
2018-03-18T03:50:02.218Z,49.57
2018-03-18T03:52:32.412Z,49.00
2018-03-18T03:58:04.422Z,49.57
2018-03-18T04:00:31.872Z,47.33
2018-03-18T04:03:02.411Z,53.47
2018-03-18T04:05:30.721Z,50.20
2018-03-18T04:08:33.566Z,52.10
2018-03-18T04:14:01.694Z,52.83
2018-03-18T04:16:32.903Z,50.07
2018-03-18T04:19:02.547Z,53.27
2018-03-18T04:21:32.787Z,59.93
2018-03-18T04:24:02.541Z,55.60
2018-03-18T04:26:37.839Z,52.83
2018-03-18T04:29:05.293Z,50.53
2018-03-18T04:31:55.862Z,57.63
2018-03-18T04:34:31.605Z,52.53
2018-03-18T04:37:01.809Z,50.60
2018-03-18T04:43:01.329Z,46.60
2018-03-18T04:48:33.952Z,45.27
2018-03-18T04:51:02.018Z,58.73
2018-03-18T04:53:31.969Z,48.50
2018-03-18T04:56:02.883Z,58.70
2018-03-18T04:58:32.205Z,49.77
2018-03-18T05:01:02.235Z,49.73
2018-03-18T05:03:33.074Z,54.87
2018-03-18T05:06:02.905Z,55.67
2018-03-18T05:08:32.207Z,55.60
2018-03-18T05:14:32.260Z,52.93
2018-03-18T05:17:02.369Z,48.57
2018-03-18T05:19:31.408Z,47.63
2018-03-18T05:22:01.206Z,48.20
2018-03-18T05:24:34.442Z,53.13
2018-03-18T05:27:02.043Z,54.30
2018-03-18T05:29:31.386Z,54.53
2018-03-18T05:32:02.684Z,51.40
2018-03-18T05:34:32.754Z,58.63
2018-03-18T05:37:00.278Z,53.77
2018-03-18T05:39:32.251Z,58.73
2018-03-18T05:42:02.505Z,61.97
2018-03-18T05:44:36.490Z,56.50
2018-03-18T05:47:06.137Z,59.70
2018-03-18T05:49:34.377Z,64.57
2018-03-18T05:52:01.981Z,62.70
2018-03-18T05:54:31.502Z,54.73
2018-03-18T05:57:01.835Z,69.87
2018-03-18T06:02:30.953Z,54.57
2018-03-18T06:04:59.888Z,56.70
2018-03-18T06:07:29.729Z,61.57
2018-03-18T06:10:05.765Z,67.30
2018-03-18T06:12:34.069Z,63.70
2018-03-18T06:15:02.972Z,66.47
2018-03-18T06:17:31.735Z,66.03
2018-03-18T06:20:02.652Z,63.67
2018-03-18T06:22:37.922Z,62.27
2018-03-18T06:25:05.450Z,59.20
2018-03-18T06:27:33.051Z,62.90
2018-03-18T06:30:03.302Z,62.53
2018-03-18T06:32:31.094Z,55.73
2018-03-18T06:35:01.945Z,55.50
2018-03-18T06:37:33.130Z,60.07
2018-03-18T06:40:02.877Z,55.83
2018-03-18T06:42:31.998Z,60.33
2018-03-18T06:45:01.635Z,55.87
2018-03-18T06:47:31.786Z,57.53
2018-03-18T06:50:03.045Z,53.20
2018-03-18T06:52:32.016Z,56.17
2018-03-18T06:58:05.930Z,51.97
2018-03-18T07:00:34.296Z,52.67
2018-03-18T07:03:03.195Z,50.90
2018-03-18T07:05:32.305Z,48.27
2018-03-18T07:11:32.241Z,46.13
2018-03-18T07:14:01.325Z,44.60
2018-03-18T07:16:31.234Z,42.43
2018-03-18T07:19:01.990Z,42.27
2018-03-18T07:21:30.613Z,50.33
2018-03-18T07:24:00.314Z,49.70
2018-03-18T07:26:32.135Z,44.30
2018-03-18T07:32:37.027Z,47.63
2018-03-18T07:35:05.906Z,48.77
2018-03-18T07:37:33.367Z,44.60
2018-03-18T07:40:01.333Z,47.27
2018-03-18T07:42:31.219Z,41.23
2018-03-18T07:44:59.547Z,42.10
2018-03-18T07:47:31.332Z,45.87
2018-03-18T07:50:00.635Z,46.10
2018-03-18T07:52:31.422Z,49.23
2018-03-18T07:54:59.782Z,45.33
2018-03-18T07:57:29.184Z,48.70
2018-03-18T08:00:01.217Z,44.40
2018-03-18T08:02:28.683Z,48.67
2018-03-18T08:04:59.558Z,45.17
2018-03-18T08:07:30.525Z,45.37
2018-03-18T08:10:01.578Z,49.77
2018-03-18T08:12:29.905Z,45.87
2018-03-18T08:14:59.397Z,48.07
2018-03-18T08:17:28.358Z,45.73
2018-03-18T08:19:59.475Z,44.77
2018-03-18T08:22:30.533Z,46.43
2018-03-18T08:24:59.582Z,48.00
2018-03-18T08:27:27.094Z,43.73
2018-03-18T08:30:23.604Z,48.70
2018-03-18T08:33:11.164Z,46.10
2018-03-18T08:35:38.661Z,44.23
2018-03-18T08:38:06.149Z,44.67
2018-03-18T08:40:33.625Z,44.43
2018-03-18T08:43:01.697Z,44.47
2018-03-18T08:45:30.751Z,42.20
2018-03-18T08:48:03.118Z,48.23
2018-03-18T08:50:31.455Z,50.23
2018-03-18T08:52:59.759Z,38.90
2018-03-18T08:55:29.847Z,47.70
2018-03-18T08:57:59.021Z,40.50
2018-03-18T09:00:27.709Z,46.50
2018-03-18T09:02:57.867Z,42.17
2018-03-18T09:05:29.413Z,41.90
2018-03-18T09:07:58.074Z,49.37
2018-03-18T09:10:29.375Z,44.63
2018-03-18T09:13:28.162Z,43.43
2018-03-18T09:16:01.430Z,46.40
2018-03-18T09:18:31.718Z,47.63
2018-03-18T09:21:00.161Z,40.83
2018-03-18T09:23:28.432Z,42.37
2018-03-18T09:25:56.534Z,48.17
2018-03-18T09:28:25.948Z,44.53
2018-03-18T09:31:00.023Z,42.17
2018-03-18T09:33:30.022Z,49.70
2018-03-18T09:35:59.801Z,52.60
2018-03-18T09:38:29.936Z,46.33
2018-03-18T09:41:00.013Z,44.53
2018-03-18T09:43:29.716Z,42.77
2018-03-18T09:45:59.896Z,48.73
2018-03-18T09:48:30.661Z,46.10
2018-03-18T09:50:59.234Z,50.30
2018-03-18T09:53:29.215Z,46.63
2018-03-18T09:55:57.514Z,43.77
2018-03-18T09:58:25.063Z,43.50
2018-03-18T10:01:00.147Z,44.63
2018-03-18T10:06:33.805Z,36.37
2018-03-18T10:09:01.560Z,42.10
2018-03-18T10:11:31.533Z,42.87
2018-03-18T10:14:11.071Z,40.83
2018-03-18T10:16:38.577Z,43.13
2018-03-18T10:19:06.041Z,41.57
2018-03-18T10:21:33.523Z,44.53
2018-03-18T10:24:01.747Z,40.93
2018-03-18T10:26:32.547Z,43.13
2018-03-18T10:29:00.001Z,39.77
2018-03-18T10:31:27.611Z,36.50
2018-03-18T10:33:55.582Z,38.70
2018-03-18T10:36:23.741Z,38.73
2018-03-18T10:38:52.241Z,40.27
2018-03-18T10:41:22.070Z,38.83
2018-03-18T10:43:51.933Z,40.57
2018-03-18T10:46:22.156Z,45.30
2018-03-18T10:48:50.233Z,36.20
2018-03-18T10:51:35.597Z,39.20
2018-03-18T10:54:03.320Z,37.50
2018-03-18T10:56:41.185Z,39.70
2018-03-18T10:59:08.762Z,38.50
2018-03-18T11:04:32.051Z,38.67
2018-03-18T11:07:01.983Z,39.00
2018-03-18T11:09:34.803Z,38.17
2018-03-18T11:14:59.019Z,40.47
2018-03-18T11:17:31.825Z,43.60
2018-03-18T11:20:00.054Z,36.27
2018-03-18T11:25:31.311Z,42.00
2018-03-18T11:28:01.162Z,40.33
2018-03-18T11:30:28.660Z,40.07
2018-03-18T11:33:00.148Z,40.93
2018-03-18T11:35:28.163Z,43.57
2018-03-18T11:37:58.154Z,42.37
2018-03-18T11:40:31.023Z,40.03
2018-03-18T11:42:58.492Z,44.40
2018-03-18T11:45:29.033Z,38.70
2018-03-18T11:47:58.302Z,42.03
2018-03-18T11:50:29.319Z,40.17
2018-03-18T11:52:58.690Z,42.60
2018-03-18T11:55:31.183Z,36.60
2018-03-18T11:57:58.724Z,42.33
2018-03-18T12:00:26.913Z,39.53
2018-03-18T12:02:58.189Z,41.50
2018-03-18T12:05:28.188Z,43.53
2018-03-18T12:07:58.473Z,40.10
2018-03-18T12:10:31.130Z,39.22
2018-03-18T12:13:00.249Z,42.90
2018-03-18T12:15:33.317Z,42.50
2018-03-18T12:18:00.809Z,36.73
2018-03-18T12:20:28.495Z,42.67
2018-03-18T12:22:57.806Z,40.47
2018-03-18T12:25:27.389Z,40.93
2018-03-18T12:27:57.815Z,43.40
2018-03-18T12:30:37.903Z,42.77
2018-03-18T12:33:05.948Z,44.83
2018-03-18T12:35:34.216Z,40.93
2018-03-18T12:38:01.685Z,43.07
2018-03-18T12:40:31.291Z,46.30
2018-03-18T12:43:10.602Z,42.60
2018-03-18T12:45:38.842Z,43.83
2018-03-18T12:48:06.308Z,43.60
2018-03-18T12:50:33.794Z,48.40
2018-03-18T12:53:01.237Z,43.30
2018-03-18T12:55:29.583Z,40.70
2018-03-18T13:01:01.134Z,46.93
2018-03-18T13:03:30.928Z,45.40
2018-03-18T13:06:01.029Z,50.90
2018-03-18T13:08:28.546Z,44.53
2018-03-18T13:10:58.449Z,42.70
2018-03-18T13:13:28.623Z,47.87
2018-03-18T13:15:57.103Z,47.87
2018-03-18T13:18:26.922Z,42.20
2018-03-18T13:20:54.451Z,43.77
2018-03-18T13:23:25.279Z,45.80
2018-03-18T13:25:55.590Z,48.83
2018-03-18T13:28:30.784Z,47.83
2018-03-18T13:30:59.582Z,47.30
2018-03-18T13:33:29.703Z,46.77
2018-03-18T13:36:00.798Z,37.97
2018-03-18T13:41:49.185Z,44.13
2018-03-18T13:44:35.285Z,49.33
2018-03-18T13:47:02.789Z,50.67
2018-03-18T13:49:31.082Z,44.70
2018-03-18T13:52:02.096Z,42.03
2018-03-18T13:54:30.383Z,43.60
2018-03-18T13:56:58.988Z,46.63
2018-03-18T13:59:29.823Z,44.17
2018-03-18T14:01:59.439Z,44.60
2018-03-18T14:07:27.603Z,42.93
2018-03-18T14:09:58.518Z,38.40
2018-03-18T14:12:28.745Z,39.30
2018-03-18T14:14:59.785Z,42.87
2018-03-18T14:17:29.960Z,44.37
2018-03-18T14:20:00.821Z,39.20
2018-03-18T14:22:30.106Z,39.37
2018-03-18T14:24:59.959Z,37.47
2018-03-18T14:27:38.957Z,36.07
2018-03-18T14:30:06.446Z,46.30
2018-03-18T14:32:33.910Z,41.87
2018-03-18T14:35:03.401Z,41.40
2018-03-18T14:38:05.608Z,41.97
2018-03-18T14:41:03.180Z,41.00
2018-03-18T14:44:03.281Z,37.13
2018-03-18T14:46:31.378Z,41.20
2018-03-18T14:48:59.929Z,43.13
2018-03-18T14:51:31.903Z,54.93
2018-03-18T14:54:00.065Z,44.83
2018-03-18T14:56:29.861Z,40.40
2018-03-18T14:58:59.980Z,47.37
2018-03-18T15:01:29.898Z,42.97
2018-03-18T15:04:00.126Z,35.57
2018-03-18T15:06:30.161Z,40.00
2018-03-18T15:09:00.169Z,40.47
2018-03-18T15:11:29.726Z,46.93
2018-03-18T15:13:58.739Z,42.10
2018-03-18T15:16:38.707Z,43.53
2018-03-18T15:19:08.556Z,43.43
2018-03-18T15:21:36.784Z,50.13
2018-03-18T15:24:24.991Z,42.67
2018-03-18T15:32:32.688Z,42.50
2018-03-18T15:35:05.896Z,50.57
2018-03-18T15:37:33.369Z,44.17
2018-03-18T15:40:01.629Z,42.63
2018-03-18T15:42:30.906Z,44.37
2018-03-18T15:45:01.373Z,43.00
2018-03-18T15:47:56.536Z,45.83
2018-03-18T15:50:28.123Z,41.57
2018-03-18T15:52:58.746Z,46.70
2018-03-18T15:55:39.308Z,43.90
2018-03-18T15:58:31.068Z,45.90
2018-03-18T16:01:00.810Z,45.47
2018-03-18T16:04:03.133Z,39.57
2018-03-18T16:06:59.069Z,46.87
2018-03-18T16:09:31.033Z,44.43
2018-03-18T16:12:00.760Z,45.53
2018-03-18T16:14:29.826Z,43.87
2018-03-18T16:20:33.008Z,48.77
2018-03-18T16:23:00.453Z,41.70
2018-03-18T16:25:29.142Z,41.20
2018-03-18T16:28:27.360Z,46.87
2018-03-18T16:31:33.066Z,41.03
2018-03-18T16:34:00.554Z,39.97
2018-03-18T16:36:29.980Z,39.40
2018-03-18T16:39:00.866Z,47.27
2018-03-18T16:41:30.169Z,46.30
2018-03-18T16:44:13.193Z,48.47
2018-03-18T16:46:50.410Z,43.40
2018-03-18T16:49:29.723Z,47.00
2018-03-18T16:52:00.230Z,49.10
2018-03-18T16:54:30.040Z,42.63
2018-03-18T16:57:00.070Z,43.50
2018-03-18T17:02:41.806Z,43.73
2018-03-18T17:05:09.281Z,49.40
2018-03-18T17:07:36.740Z,44.33
2018-03-18T17:13:34.736Z,44.40
2018-03-18T17:16:02.189Z,49.20
2018-03-18T17:18:30.806Z,46.50
2018-03-18T17:21:01.591Z,46.90
2018-03-18T17:23:30.842Z,45.67
2018-03-18T17:26:00.685Z,53.80
2018-03-18T17:28:31.794Z,44.07
2018-03-18T17:31:00.658Z,55.40
2018-03-18T17:33:32.928Z,53.60
2018-03-18T17:36:00.902Z,54.73
2018-03-18T17:38:30.882Z,53.67
2018-03-18T17:41:00.953Z,51.63
2018-03-18T17:43:30.773Z,50.70
2018-03-18T17:52:25.410Z,59.27
2018-03-18T17:55:05.298Z,57.83
2018-03-18T17:57:32.753Z,54.57
2018-03-18T18:00:00.378Z,52.93
2018-03-18T18:02:29.094Z,49.90
2018-03-18T18:04:59.000Z,54.07
2018-03-18T18:07:29.714Z,49.97
2018-03-18T18:09:59.287Z,54.57
2018-03-18T18:12:28.333Z,56.73
2018-03-18T18:15:00.003Z,58.33
2018-03-18T18:20:33.644Z,57.17
2018-03-18T18:23:01.600Z,58.73
2018-03-18T18:25:30.449Z,60.00
2018-03-18T18:28:02.336Z,66.20
2018-03-18T18:30:30.338Z,54.40
2018-03-18T18:33:37.624Z,60.33
2018-03-18T18:36:08.866Z,55.80
2018-03-18T18:42:11.090Z,64.35
2018-03-18T18:44:38.582Z,52.33
2018-03-18T18:47:06.853Z,50.70
2018-03-18T18:49:34.426Z,51.60
2018-03-18T18:52:08.552Z,58.37
2018-03-18T18:54:36.091Z,54.20
2018-03-18T18:57:03.878Z,47.33
2018-03-18T18:59:32.945Z,45.67
2018-03-18T19:02:04.060Z,50.10
2018-03-18T19:04:32.962Z,56.67
2018-03-18T19:07:24.846Z,47.40
2018-03-18T19:16:02.989Z,58.50
2018-03-18T19:18:32.260Z,58.00
2018-03-18T19:21:00.186Z,52.80
2018-03-18T19:24:06.951Z,56.27
2018-03-18T19:26:34.861Z,50.67
2018-03-18T19:29:02.455Z,54.97
2018-03-18T19:31:35.862Z,54.33
2018-03-18T19:34:04.090Z,49.90
2018-03-18T19:36:31.582Z,54.60
2018-03-18T19:39:02.859Z,53.73
2018-03-18T19:44:33.123Z,45.33
2018-03-18T19:47:01.262Z,46.40
2018-03-18T19:49:31.094Z,53.23
2018-03-18T19:52:07.953Z,55.63
2018-03-18T19:54:35.400Z,50.90
2018-03-18T19:57:03.369Z,57.30
2018-03-18T19:59:33.092Z,54.20
2018-03-18T20:02:03.132Z,54.80
2018-03-18T20:04:32.417Z,58.93
2018-03-18T20:07:02.205Z,55.40
2018-03-18T20:09:32.310Z,58.90
2018-03-18T20:12:01.134Z,57.73
2018-03-18T20:14:32.143Z,55.43
2018-03-18T20:17:01.133Z,55.23
2018-03-18T20:19:31.657Z,56.73
2018-03-18T20:22:02.626Z,51.07
2018-03-18T20:24:32.461Z,56.93
2018-03-18T20:27:02.349Z,55.30
2018-03-18T20:29:32.412Z,62.30
2018-03-18T20:32:03.245Z,59.93
2018-03-18T20:34:33.412Z,54.03
2018-03-18T20:37:02.358Z,54.50
2018-03-18T20:39:32.345Z,54.40
2018-03-18T20:42:34.325Z,55.03
2018-03-18T20:45:02.932Z,54.17
2018-03-18T20:47:32.380Z,56.87
2018-03-18T20:50:06.814Z,58.10
2018-03-18T20:52:34.725Z,61.13
2018-03-18T20:55:02.943Z,55.40
2018-03-18T20:58:05.674Z,58.10
2018-03-18T21:00:33.267Z,57.53
2018-03-18T21:03:02.671Z,52.53
2018-03-18T21:11:36.962Z,58.27
2018-03-18T21:14:04.415Z,54.77
2018-03-18T21:16:32.666Z,67.20
2018-03-18T21:19:00.135Z,59.33
2018-03-18T21:21:30.060Z,62.03
2018-03-18T21:23:59.741Z,63.13
2018-03-18T21:26:28.038Z,58.87
2018-03-18T21:28:59.509Z,59.20
2018-03-18T21:31:27.856Z,63.93
2018-03-18T21:34:00.719Z,56.20
2018-03-18T21:36:33.077Z,68.30
2018-03-18T21:39:00.688Z,60.33
2018-03-18T21:41:31.923Z,67.13
2018-03-18T21:44:02.874Z,69.97
2018-03-18T21:46:33.734Z,60.40
2018-03-18T21:49:01.209Z,64.40
2018-03-18T21:51:31.722Z,57.50
2018-03-18T21:54:03.386Z,58.83
2018-03-18T21:56:31.902Z,58.30
2018-03-18T21:59:03.077Z,60.90
2018-03-18T22:01:32.786Z,67.53
2018-03-18T22:04:02.947Z,69.83
2018-03-18T22:06:33.197Z,68.10
2018-03-18T22:09:01.972Z,69.00
2018-03-18T22:12:02.004Z,67.20
2018-03-18T22:14:32.945Z,74.77
2018-03-18T22:17:07.968Z,71.80
2018-03-18T22:19:35.469Z,65.97
2018-03-18T22:25:32.611Z,68.40
2018-03-18T22:31:06.909Z,63.93
2018-03-18T22:33:34.406Z,72.70
2018-03-18T22:42:03.505Z,66.50
2018-03-18T22:44:37.998Z,69.43
2018-03-18T22:47:05.466Z,70.70
2018-03-18T22:49:32.950Z,69.97
2018-03-18T22:52:03.681Z,70.70
2018-03-18T22:54:32.317Z,76.90
2018-03-18T22:57:29.143Z,78.37
2018-03-18T22:59:59.819Z,68.27
2018-03-18T23:02:31.242Z,70.73
2018-03-18T23:15:01.617Z,77.27
2018-03-18T23:17:32.778Z,72.40
2018-03-18T23:20:02.158Z,67.10
2018-03-18T23:22:30.141Z,65.57
2018-03-18T23:25:00.945Z,72.30
2018-03-18T23:27:33.642Z,65.50
2018-03-18T23:30:03.792Z,71.10
2018-03-18T23:32:33.237Z,71.67
2018-03-18T23:35:02.788Z,69.90
2018-03-18T23:37:33.605Z,73.17
2018-03-18T23:40:08.041Z,68.57
2018-03-18T23:42:36.281Z,59.57
2018-03-18T23:45:03.689Z,67.77
2018-03-18T23:47:32.354Z,69.83
2018-03-18T23:50:03.253Z,64.40
2018-03-18T23:52:37.313Z,68.83
2018-03-18T23:55:04.837Z,65.73
2018-03-18T23:57:33.377Z,61.03
